Time;durP1;ratioP1;P1;durP2;ratioP2;P2;SDS_P1;SDS_P2;PMS_P1;PMS_P2;Temp;Humidity;BMP_temperature;BMP_pressure;BME280_temperature;BME280_humidity;BME280_pressure;Samples;Min_cycle;Max_cycle;Signal;HPM_P1;HPM_P2
2021/05/04 00:00:50;;;;;;;;;;;7.80;86.90;;;;;;5050559;28;20487;-79
2021/05/04 00:03:16;;;;;;;;;;;7.80;88.60;;;;;;5050059;28;19913;-79
2021/05/04 00:05:41;;;;;;;;;;;7.80;88.10;;;;;;5049960;28;19923;-79
2021/05/04 00:08:09;;;;;;;;;;;7.90;86.20;;;;;;5049766;28;19920;-80
2021/05/04 00:10:35;;;;;;;;;;;7.90;89.10;;;;;;5049188;28;19956;-79
2021/05/04 00:13:00;;;;;;;;;;;7.90;88.90;;;;;;5031601;28;19971;-79
2021/05/04 00:15:26;;;;;;;;;;;8.00;87.00;;;;;;5031277;28;19952;-79
2021/05/04 00:17:51;;;;;;;;;;;8.00;87.40;;;;;;5049571;28;20320;-79
2021/05/04 00:20:17;;;;;;;;;;;8.00;87.70;;;;;;5030406;28;19932;-79
2021/05/04 00:22:42;;;;;;;;;;;8.00;84.60;;;;;;5050905;28;19923;-79
2021/05/04 00:25:08;;;;;;;;;;;8.10;85.10;;;;;;5031150;28;19921;-80
2021/05/04 00:27:34;;;;;;;;;;;8.10;87.80;;;;;;5014545;28;19916;-79
2021/05/04 00:29:59;;;;;;;;;;;8.10;83.80;;;;;;5048827;28;20024;-79
2021/05/04 00:32:27;;;;;;;;;;;8.10;86.20;;;;;;5031232;28;19939;-79
2021/05/04 00:34:55;;;;;;;;;;;8.20;87.30;;;;;;5052081;28;19925;-80
2021/05/04 00:37:20;;;;;;;;;;;8.10;85.90;;;;;;5034665;28;21818;-80
2021/05/04 00:39:46;;;;;;;;;;;8.20;86.80;;;;;;5030553;28;19916;-80
2021/05/04 00:42:11;;;;;;;;;;;8.20;85.80;;;;;;5020157;28;19920;-79
2021/05/04 00:44:39;;;;;;;;;;;8.20;86.00;;;;;;5048639;28;20381;-79
2021/05/04 00:47:04;;;;;;;;;;;8.30;81.70;;;;;;5048748;28;19956;-82
2021/05/04 00:49:30;;;;;;;;;;;8.30;84.40;;;;;;5049014;28;20058;-81
2021/05/04 00:51:55;;;;;;;;;;;8.40;86.00;;;;;;5030292;28;19921;-79
2021/05/04 00:54:22;;;;;;;;;;;8.30;82.70;;;;;;5048883;28;19917;-80
2021/05/04 00:56:47;;;;;;;;;;;8.30;86.90;;;;;;5049693;28;19917;-79
2021/05/04 00:59:18;;;;;;;;;;;8.40;82.30;;;;;;5029126;28;20375;-80
2021/05/04 01:01:43;;;;;;;;;;;8.30;82.20;;;;;;5048446;28;19916;-79
2021/05/04 01:04:09;;;;;;;;;;;8.40;83.70;;;;;;5029984;28;20467;-80
2021/05/04 01:06:34;;;;;;;;;;;8.40;83.10;;;;;;5012950;28;19912;-79
2021/05/04 01:09:02;;;;;;;;;;;8.50;83.70;;;;;;5047933;28;19928;-79
2021/05/04 01:11:28;;;;;;;;;;;8.50;82.80;;;;;;5031044;28;20342;-79
2021/05/04 01:13:55;;;;;;;;;;;8.50;85.00;;;;;;5028856;28;19927;-80
2021/05/04 01:16:20;;;;;;;;;;;8.40;85.10;;;;;;5048825;28;20017;-79
2021/05/04 01:18:46;;;;;;;;;;;8.40;81.80;;;;;;5048208;28;19921;-81
2021/05/04 01:21:11;;;;;;;;;;;8.50;84.50;;;;;;5029811;28;19913;-80
2021/05/04 01:23:39;;;;;;;;;;;8.50;83.30;;;;;;5047830;28;19920;-80
2021/05/04 01:26:04;;;;;;;;;;;8.50;84.60;;;;;;5048431;28;19917;-80
2021/05/04 01:28:32;;;;;;;;;;;8.50;84.30;;;;;;5048429;28;19932;-81
2021/05/04 01:31:00;;;;;;;;;;;8.50;82.00;;;;;;5047589;28;19932;-80
2021/05/04 01:33:26;;;;;;;;;;;8.50;83.40;;;;;;5030225;28;20346;-80
2021/05/04 01:35:53;;;;;;;;;;;8.50;83.90;;;;;;5033198;28;19921;-80
2021/05/04 01:38:19;;;;;;;;;;;8.50;81.30;;;;;;5029500;28;19931;-81
2021/05/04 01:40:44;;;;;;;;;;;8.50;82.90;;;;;;5046696;28;20463;-80
2021/05/04 01:43:12;;;;;;;;;;;8.60;83.50;;;;;;5047589;28;19921;-80
2021/05/04 01:45:37;;;;;;;;;;;8.60;83.00;;;;;;5048310;28;19916;-80
2021/05/04 01:48:03;;;;;;;;;;;8.60;82.20;;;;;;5048526;28;20383;-81
2021/05/04 01:50:29;;;;;;;;;;;8.60;83.20;;;;;;5048140;28;20445;-79
2021/05/04 01:52:54;;;;;;;;;;;8.60;83.40;;;;;;5048831;28;20798;-81
2021/05/04 01:55:20;;;;;;;;;;;8.60;83.50;;;;;;5048528;28;19999;-82
2021/05/04 01:57:45;;;;;;;;;;;8.50;82.00;;;;;;5046673;28;19920;-81
2021/05/04 02:00:13;;;;;;;;;;;8.50;85.20;;;;;;5047804;28;20372;-79
2021/05/04 02:02:39;;;;;;;;;;;8.50;82.30;;;;;;5030477;28;19921;-80
2021/05/04 02:05:07;;;;;;;;;;;8.50;84.10;;;;;;5047064;28;19932;-79
2021/05/04 02:07:35;;;;;;;;;;;8.50;82.10;;;;;;5047946;28;19942;-80
2021/05/04 02:10:03;;;;;;;;;;;8.50;83.40;;;;;;5030461;28;21795;-80
2021/05/04 02:12:29;;;;;;;;;;;8.50;80.90;;;;;;5047821;28;20574;-80
2021/05/04 02:14:57;;;;;;;;;;;8.50;82.80;;;;;;5047321;28;20023;-80
2021/05/04 02:17:22;;;;;;;;;;;8.50;81.60;;;;;;5048147;28;19956;-80
2021/05/04 02:19:48;;;;;;;;;;;8.60;81.10;;;;;;5029391;28;20030;-80
2021/05/04 02:22:15;;;;;;;;;;;8.60;82.50;;;;;;5029775;28;20453;-79
2021/05/04 02:24:40;;;;;;;;;;;8.60;80.90;;;;;;5012587;28;19927;-79
2021/05/04 02:27:06;;;;;;;;;;;8.60;81.60;;;;;;5029543;28;19920;-80
2021/05/04 02:29:31;;;;;;;;;;;8.50;81.90;;;;;;4999699;28;20801;-78
2021/05/04 02:31:57;;;;;;;;;;;8.50;82.00;;;;;;5046838;28;20309;-79
2021/05/04 02:34:25;;;;;;;;;;;8.50;81.40;;;;;;5046968;28;20449;-79
2021/05/04 02:36:50;;;;;;;;;;;8.50;82.20;;;;;;5047329;28;19932;-80
2021/05/04 02:39:16;;;;;;;;;;;8.50;82.50;;;;;;5046963;28;19920;-82
2021/05/04 02:41:41;;;;;;;;;;;8.50;82.50;;;;;;5047381;28;19920;-81
2021/05/04 02:44:07;;;;;;;;;;;8.50;81.50;;;;;;5047565;28;19913;-79
2021/05/04 02:46:37;;;;;;;;;;;8.50;82.10;;;;;;5029842;28;19935;-79
2021/05/04 02:49:05;;;;;;;;;;;8.50;81.90;;;;;;5051900;28;20333;-79
2021/05/04 02:51:32;;;;;;;;;;;8.50;82.70;;;;;;5051377;28;19936;-80
2021/05/04 02:53:58;;;;;;;;;;;8.50;82.00;;;;;;5002106;28;19916;-80
2021/05/04 02:56:23;;;;;;;;;;;8.40;82.00;;;;;;5030964;28;19931;-79
2021/05/04 02:58:49;;;;;;;;;;;8.40;82.60;;;;;;5015892;28;19925;-79
2021/05/04 03:01:16;;;;;;;;;;;8.40;82.90;;;;;;5051040;28;19917;-77
2021/05/04 03:03:42;;;;;;;;;;;8.40;83.40;;;;;;5051282;28;20008;-79
2021/05/04 03:06:12;;;;;;;;;;;8.40;83.50;;;;;;5052823;28;19978;-78
2021/05/04 03:08:38;;;;;;;;;;;8.40;84.80;;;;;;5051685;28;19940;-79
2021/05/04 03:11:03;;;;;;;;;;;8.40;82.90;;;;;;5049978;28;19912;-80
2021/05/04 03:13:29;;;;;;;;;;;8.50;82.70;;;;;;5049619;28;19936;-82
2021/05/04 03:15:57;;;;;;;;;;;8.40;83.30;;;;;;5052548;28;19921;-79
2021/05/04 03:18:23;;;;;;;;;;;8.30;84.40;;;;;;5050377;28;19982;-79
2021/05/04 03:20:49;;;;;;;;;;;8.30;84.00;;;;;;5050778;28;20350;-79
2021/05/04 03:23:18;;;;;;;;;;;8.30;84.60;;;;;;5032535;28;19978;-80
2021/05/04 03:25:44;;;;;;;;;;;8.30;83.60;;;;;;5050357;28;19913;-79
2021/05/04 03:28:09;;;;;;;;;;;8.30;87.10;;;;;;5033509;28;19982;-76
2021/05/04 03:30:35;;;;;;;;;;;8.30;83.00;;;;;;5051204;28;19927;-80
2021/05/04 03:33:00;;;;;;;;;;;8.30;83.30;;;;;;5017646;28;20321;-81
2021/05/04 03:35:26;;;;;;;;;;;8.30;83.50;;;;;;5033439;28;20593;-80
2021/05/04 03:37:54;;;;;;;;;;;8.30;83.40;;;;;;5034122;28;19947;-80
2021/05/04 03:40:19;;;;;;;;;;;8.30;85.10;;;;;;5050100;28;19925;-79
2021/05/04 03:42:45;;;;;;;;;;;8.30;83.00;;;;;;5033010;28;20791;-81
2021/05/04 03:45:13;;;;;;;;;;;8.30;83.70;;;;;;5050856;28;19921;-80
2021/05/04 03:47:40;;;;;;;;;;;8.30;82.90;;;;;;5035238;28;19928;-79
2021/05/04 03:50:06;;;;;;;;;;;8.30;85.10;;;;;;5047783;28;20010;-79
2021/05/04 03:52:31;;;;;;;;;;;8.30;83.30;;;;;;5030807;28;19927;-79
2021/05/04 03:54:57;;;;;;;;;;;8.30;85.80;;;;;;5050210;28;19925;-80
2021/05/04 03:57:22;;;;;;;;;;;8.30;84.70;;;;;;5050741;28;19916;-78
2021/05/04 03:59:48;;;;;;;;;;;8.40;84.60;;;;;;5031879;28;19916;-78
2021/05/04 04:02:13;;;;;;;;;;;8.40;84.40;;;;;;5018073;28;19917;-80
2021/05/04 04:04:39;;;;;;;;;;;8.30;83.70;;;;;;5049661;28;20002;-79
2021/05/04 04:07:04;;;;;;;;;;;8.40;83.10;;;;;;5049054;28;19994;-77
2021/05/04 04:09:30;;;;;;;;;;;8.40;84.30;;;;;;5049977;28;19925;-80
2021/05/04 04:11:55;;;;;;;;;;;8.40;83.90;;;;;;5049138;28;19921;-80
2021/05/04 04:14:21;;;;;;;;;;;8.40;82.70;;;;;;5017362;28;20428;-79
2021/05/04 04:16:46;;;;;;;;;;;8.40;81.80;;;;;;5049531;28;19923;-79
2021/05/04 04:19:12;;;;;;;;;;;8.50;83.50;;;;;;5049996;28;19929;-77
2021/05/04 04:21:37;;;;;;;;;;;8.50;82.10;;;;;;5049746;28;19927;-79
2021/05/04 04:24:05;;;;;;;;;;;8.50;84.40;;;;;;5048878;28;19925;-79
2021/05/04 04:26:31;;;;;;;;;;;8.50;82.30;;;;;;5032671;28;19920;-80
2021/05/04 04:28:56;;;;;;;;;;;8.50;83.00;;;;;;5026968;28;19917;-80
2021/05/04 04:31:22;;;;;;;;;;;8.50;83.00;;;;;;5051387;28;19921;-79
2021/05/04 04:33:47;;;;;;;;;;;8.60;82.40;;;;;;5049172;28;19917;-79
2021/05/04 04:36:13;;;;;;;;;;;8.60;82.00;;;;;;5049605;28;19920;-81
2021/05/04 04:38:41;;;;;;;;;;;8.70;82.60;;;;;;5029689;28;19921;-82
2021/05/04 04:41:06;;;;;;;;;;;8.70;81.90;;;;;;5048610;28;20346;-80
2021/05/04 04:43:32;;;;;;;;;;;8.70;82.50;;;;;;5032018;28;19927;-79
2021/05/04 04:45:57;;;;;;;;;;;8.70;82.50;;;;;;5050515;28;19921;-80
2021/05/04 04:48:25;;;;;;;;;;;8.70;81.70;;;;;;5050242;28;19959;-79
2021/05/04 04:50:51;;;;;;;;;;;8.70;83.20;;;;;;5048875;28;19916;-78
2021/05/04 04:53:16;;;;;;;;;;;8.80;82.10;;;;;;5028651;28;19931;-80
2021/05/04 04:55:44;;;;;;;;;;;8.70;82.20;;;;;;5029496;28;20011;-79
2021/05/04 04:58:10;;;;;;;;;;;8.80;85.50;;;;;;5030499;28;20492;-80
2021/05/04 05:00:35;;;;;;;;;;;8.80;83.10;;;;;;5048929;28;19928;-80
2021/05/04 05:03:03;;;;;;;;;;;8.80;82.70;;;;;;5031252;28;19921;-79
2021/05/04 05:05:31;;;;;;;;;;;8.80;83.10;;;;;;5049042;28;20534;-81
2021/05/04 05:07:58;;;;;;;;;;;8.90;83.70;;;;;;5049060;28;20011;-80
2021/05/04 05:10:26;;;;;;;;;;;8.80;84.20;;;;;;5028689;28;19955;-81
2021/05/04 05:12:52;;;;;;;;;;;8.90;84.90;;;;;;5028933;28;19917;-79
2021/05/04 05:15:20;;;;;;;;;;;8.90;84.10;;;;;;5048047;28;19916;-79
2021/05/04 05:17:48;;;;;;;;;;;8.90;82.40;;;;;;5015185;28;19999;-79
2021/05/04 05:20:14;;;;;;;;;;;9.00;81.70;;;;;;5048287;28;19935;-79
2021/05/04 05:22:39;;;;;;;;;;;9.10;81.90;;;;;;5047932;28;19920;-80
2021/05/04 05:25:05;;;;;;;;;;;9.10;81.10;;;;;;5048534;28;19920;-80
2021/05/04 05:27:31;;;;;;;;;;;9.10;83.50;;;;;;5048768;28;19917;-81
2021/05/04 05:29:57;;;;;;;;;;;9.10;80.70;;;;;;5048605;28;19940;-80
2021/05/04 05:32:25;;;;;;;;;;;9.10;80.70;;;;;;5021312;28;19939;-81
2021/05/04 05:34:53;;;;;;;;;;;9.20;81.00;;;;;;5030798;28;19924;-80
2021/05/04 05:37:18;;;;;;;;;;;9.30;80.00;;;;;;5029557;28;19916;-78
2021/05/04 05:39:44;;;;;;;;;;;9.30;78.00;;;;;;5030403;28;19916;-78
2021/05/04 05:42:10;;;;;;;;;;;9.50;74.80;;;;;;5048101;28;19931;-79
2021/05/04 05:44:38;;;;;;;;;;;9.60;74.30;;;;;;5048814;28;19917;-81
2021/05/04 05:47:03;;;;;;;;;;;9.70;71.00;;;;;;5030336;28;19917;-81
2021/05/04 05:49:31;;;;;;;;;;;9.90;70.50;;;;;;5049777;28;20349;-80
2021/05/04 05:51:57;;;;;;;;;;;10.00;69.60;;;;;;5029762;28;19917;-81
2021/05/04 05:54:22;;;;;;;;;;;10.10;70.40;;;;;;5046553;28;20504;-81
2021/05/04 05:56:50;;;;;;;;;;;10.20;70.10;;;;;;5047663;28;19952;-80
2021/05/04 05:59:16;;;;;;;;;;;10.20;68.50;;;;;;5026152;28;19971;-83
2021/05/04 06:01:41;;;;;;;;;;;10.20;69.30;;;;;;5046779;28;19916;-80
2021/05/04 06:04:07;;;;;;;;;;;10.30;67.30;;;;;;5047676;28;19939;-78
2021/05/04 06:06:37;;;;;;;;;;;10.40;66.90;;;;;;5029831;28;19917;-80
2021/05/04 06:09:03;;;;;;;;;;;10.50;68.40;;;;;;5014754;28;19924;-82
2021/05/04 06:11:29;;;;;;;;;;;10.50;67.30;;;;;;5046700;28;19921;-75
2021/05/04 06:13:54;;;;;;;;;;;10.50;65.80;;;;;;5047377;28;21601;-80
2021/05/04 06:16:20;;;;;;;;;;;10.60;67.70;;;;;;5047471;28;19917;-80
2021/05/04 06:18:48;;;;;;;;;;;10.60;67.20;;;;;;5033460;28;20124;-78
2021/05/04 06:21:13;;;;;;;;;;;10.70;69.40;;;;;;5046934;28;19913;-79
2021/05/04 06:23:39;;;;;;;;;;;10.70;65.60;;;;;;5032472;28;20272;-80
2021/05/04 06:26:05;;;;;;;;;;;10.70;67.30;;;;;;5054445;28;19928;-81
2021/05/04 06:28:30;;;;;;;;;;;10.70;68.90;;;;;;5052853;28;20640;-81
2021/05/04 06:30:56;;;;;;;;;;;10.70;66.00;;;;;;5051811;28;19921;-79
2021/05/04 06:33:21;;;;;;;;;;;10.80;65.60;;;;;;5034101;28;19917;-79
2021/05/04 06:35:49;;;;;;;;;;;10.80;65.60;;;;;;5033377;28;19985;-74
2021/05/04 06:38:16;;;;;;;;;;;10.80;64.60;;;;;;5049967;28;20336;-78
2021/05/04 06:40:42;;;;;;;;;;;10.80;65.30;;;;;;5033381;28;19981;-79
2021/05/04 06:43:10;;;;;;;;;;;10.80;65.30;;;;;;5031646;28;19924;-76
2021/05/04 06:45:36;;;;;;;;;;;10.80;66.00;;;;;;5017741;28;19921;-77
2021/05/04 06:48:04;;;;;;;;;;;10.80;68.30;;;;;;5032959;28;19999;-75
2021/05/04 06:50:29;;;;;;;;;;;10.80;67.90;;;;;;5049143;28;19921;-74
2021/05/04 06:52:55;;;;;;;;;;;10.70;68.40;;;;;;5033053;28;19993;-74
2021/05/04 06:55:20;;;;;;;;;;;10.70;68.30;;;;;;5031745;28;19956;-77
2021/05/04 06:57:50;;;;;;;;;;;10.70;69.50;;;;;;5049023;28;19923;-77
2021/05/04 07:00:16;;;;;;;;;;;10.70;70.50;;;;;;5049792;28;19977;-77
2021/05/04 07:02:41;;;;;;;;;;;10.60;73.10;;;;;;5049830;28;20376;-78
2021/05/04 07:05:12;;;;;;;;;;;10.50;74.20;;;;;;5049072;28;19977;-78
2021/05/04 07:07:37;;;;;;;;;;;10.60;73.90;;;;;;5048248;28;20559;-75
2021/05/04 07:10:03;;;;;;;;;;;10.50;75.70;;;;;;5031709;28;19995;-79
2021/05/04 07:12:28;;;;;;;;;;;10.40;81.00;;;;;;5034547;28;19951;-76
2021/05/04 07:14:54;;;;;;;;;;;10.10;79.40;;;;;;5050696;28;20052;-79
2021/05/04 07:17:20;;;;;;;;;;;10.00;86.30;;;;;;5033572;28;21861;-78
2021/05/04 07:19:45;;;;;;;;;;;10.00;87.20;;;;;;5031062;28;19971;-81
2021/05/04 07:22:11;;;;;;;;;;;9.90;93.50;;;;;;5050177;28;19987;-77
2021/05/04 07:24:40;;;;;;;;;;;9.80;92.60;;;;;;5049059;28;19917;-79
2021/05/04 07:27:08;;;;;;;;;;;9.60;97.30;;;;;;5033330;28;19931;-76
2021/05/04 07:29:34;;;;;;;;;;;9.50;99.90;;;;;;5049383;28;19964;-78
2021/05/04 07:32:00;;;;;;;;;;;9.30;99.90;;;;;;5048294;28;19971;-74
2021/05/04 07:34:25;;;;;;;;;;;9.10;99.90;;;;;;5045862;28;19917;-77
2021/05/04 07:36:51;;;;;;;;;;;9.00;99.90;;;;;;5028634;28;19921;-78
2021/05/04 07:39:19;;;;;;;;;;;9.00;99.90;;;;;;5046869;28;19920;-72
2021/05/04 07:41:44;;;;;;;;;;;9.00;99.90;;;;;;5046605;28;19959;-74
2021/05/04 07:44:12;;;;;;;;;;;9.00;99.90;;;;;;5045503;28;20492;-77
2021/05/04 07:46:40;;;;;;;;;;;8.90;99.90;;;;;;5047034;28;19952;-78
2021/05/04 07:49:11;;;;;;;;;;;8.80;99.90;;;;;;5046434;28;19970;-78
2021/05/04 07:51:37;;;;;;;;;;;8.80;99.90;;;;;;5044773;28;19947;-76
2021/05/04 07:54:03;;;;;;;;;;;8.90;99.90;;;;;;5045203;28;20374;-76
2021/05/04 07:56:28;;;;;;;;;;;8.80;99.90;;;;;;5045160;28;19916;-73
2021/05/04 07:59:00;;;;;;;;;;;8.80;99.90;;;;;;5046391;28;19946;-76
2021/05/04 08:01:28;;;;;;;;;;;8.80;99.90;;;;;;5045241;28;20070;-75
2021/05/04 08:03:53;;;;;;;;;;;8.70;99.90;;;;;;5045272;28;19963;-75
2021/05/04 08:06:19;;;;;;;;;;;8.80;99.90;;;;;;5046591;28;20007;-74
2021/05/04 08:08:47;;;;;;;;;;;8.70;99.90;;;;;;5025494;28;19940;-75
2021/05/04 08:11:12;;;;;;;;;;;8.70;99.90;;;;;;5045833;28;19960;-74
2021/05/04 08:13:40;;;;;;;;;;;8.80;99.90;;;;;;5044997;28;20011;-73
2021/05/04 08:16:08;;;;;;;;;;;8.90;99.90;;;;;;5047757;28;19920;-75
2021/05/04 08:18:34;;;;;;;;;;;8.90;99.90;;;;;;5046317;28;19920;-74
2021/05/04 08:21:02;;;;;;;;;;;8.90;99.90;;;;;;5045414;28;19936;-76
2021/05/04 08:23:28;;;;;;;;;;;8.90;99.90;;;;;;5044516;28;19921;-73
2021/05/04 08:25:56;;;;;;;;;;;8.90;99.90;;;;;;5012943;28;20366;-74
2021/05/04 08:28:21;;;;;;;;;;;8.90;99.90;;;;;;5027022;28;19928;-75
2021/05/04 08:30:47;;;;;;;;;;;9.10;99.90;;;;;;5045263;28;20257;-75
2021/05/04 08:33:15;;;;;;;;;;;9.10;99.90;;;;;;5026961;28;20380;-74
2021/05/04 08:35:40;;;;;;;;;;;9.10;99.90;;;;;;5026940;28;19924;-74
2021/05/04 08:38:06;;;;;;;;;;;9.20;99.90;;;;;;5047586;28;19921;-73
2021/05/04 08:40:31;;;;;;;;;;;9.30;99.20;;;;;;5028672;28;19927;-74
2021/05/04 08:42:57;;;;;;;;;;;9.30;99.40;;;;;;5029100;28;20468;-75
2021/05/04 08:45:22;;;;;;;;;;;9.30;99.80;;;;;;5046508;28;19917;-75
2021/05/04 08:47:49;;;;;;;;;;;9.30;99.90;;;;;;5045835;28;21682;-74
2021/05/04 08:50:15;;;;;;;;;;;9.30;97.90;;;;;;5045206;28;20440;-75
2021/05/04 08:52:40;;;;;;;;;;;9.30;99.40;;;;;;5027496;28;19925;-74
2021/05/04 08:55:06;;;;;;;;;;;9.40;99.70;;;;;;5010655;28;19923;-74
2021/05/04 08:57:36;;;;;;;;;;;9.40;98.10;;;;;;5028977;28;19920;-73
2021/05/04 09:00:06;;;;;;;;;;;9.40;98.60;;;;;;5046664;28;20025;-74
2021/05/04 09:02:57;;;;;;;;;;;9.40;99.90;;;;;;5045733;28;19921;-74
2021/05/04 09:05:23;;;;;;;;;;;9.40;97.80;;;;;;5045596;28;20437;-74
2021/05/04 09:07:50;;;;;;;;;;;9.50;99.90;;;;;;5046542;28;19932;-75
2021/05/04 09:13:02;;;;;;;;;;;9.50;99.90;;;;;;5029327;28;20465;-75
2021/05/04 09:18:24;;;;;;;;;;;9.60;99.90;;;;;;5045381;28;19978;-74
2021/05/04 09:21:02;;;;;;;;;;;9.60;99.70;;;;;;5033187;28;19952;-73
2021/05/04 09:23:28;;;;;;;;;;;9.60;99.50;;;;;;5028593;28;19928;-74
2021/05/04 09:25:56;;;;;;;;;;;9.60;99.90;;;;;;5044011;28;19924;-74
2021/05/04 09:28:22;;;;;;;;;;;9.60;99.20;;;;;;5043475;28;19920;-74
2021/05/04 09:30:52;;;;;;;;;;;9.60;99.90;;;;;;5026154;28;20261;-74
2021/05/04 09:33:20;;;;;;;;;;;9.60;99.90;;;;;;5045431;28;19960;-73
2021/05/04 09:35:45;;;;;;;;;;;9.50;99.40;;;;;;5046101;28;20277;-73
2021/05/04 09:38:12;;;;;;;;;;;9.50;99.70;;;;;;5027932;28;19920;-73
2021/05/04 09:40:39;;;;;;;;;;;9.50;99.10;;;;;;5027457;28;19963;-73
2021/05/04 09:43:16;;;;;;;;;;;9.60;99.90;;;;;;5047021;28;19975;-74
2021/05/04 09:45:58;;;;;;;;;;;9.60;99.90;;;;;;5045522;28;20357;-73
2021/05/04 09:48:27;;;;;;;;;;;9.60;99.90;;;;;;5043636;28;19981;-73
2021/05/04 09:51:03;;;;;;;;;;;9.60;99.90;;;;;;5027120;28;19921;-73
2021/05/04 09:56:06;;;;;;;;;;;9.60;99.90;;;;;;5044804;28;19916;-75
2021/05/04 09:58:38;;;;;;;;;;;9.80;99.90;;;;;;5026373;28;19916;-75
2021/05/04 10:01:10;;;;;;;;;;;9.70;99.90;;;;;;5045887;28;20266;-73
2021/05/04 10:03:36;;;;;;;;;;;9.60;99.90;;;;;;5045051;28;19928;-73
2021/05/04 10:06:03;;;;;;;;;;;9.60;99.90;;;;;;5044708;28;20541;-72
2021/05/04 10:08:29;;;;;;;;;;;9.60;99.90;;;;;;5025911;28;19989;-75
2021/05/04 10:10:57;;;;;;;;;;;9.50;99.90;;;;;;5045154;28;20550;-76
2021/05/04 10:13:23;;;;;;;;;;;9.50;99.90;;;;;;5012985;28;19980;-74
2021/05/04 10:15:51;;;;;;;;;;;9.50;99.90;;;;;;5026479;28;19938;-72
2021/05/04 10:18:17;;;;;;;;;;;9.70;99.90;;;;;;5045726;28;19917;-74
2021/05/04 10:20:43;;;;;;;;;;;9.70;99.90;;;;;;5027326;28;19932;-74
2021/05/04 10:23:12;;;;;;;;;;;9.70;99.90;;;;;;5028803;28;19921;-74
2021/05/04 10:25:38;;;;;;;;;;;9.70;99.90;;;;;;5025262;28;19916;-72
2021/05/04 10:28:03;;;;;;;;;;;9.60;99.90;;;;;;5013047;28;19931;-73
2021/05/04 10:30:31;;;;;;;;;;;9.70;99.90;;;;;;5044357;28;20339;-74
2021/05/04 10:33:02;;;;;;;;;;;9.70;99.90;;;;;;5028346;28;20052;-74
2021/05/04 10:35:34;;;;;;;;;;;9.70;99.90;;;;;;5044871;28;20419;-74
2021/05/04 10:38:05;;;;;;;;;;;9.80;99.90;;;;;;5044696;28;20035;-72
2021/05/04 10:40:33;;;;;;;;;;;9.60;99.90;;;;;;5045203;28;19934;-72
2021/05/04 10:42:58;;;;;;;;;;;9.70;99.90;;;;;;5025810;28;20419;-73
2021/05/04 10:45:37;;;;;;;;;;;9.70;99.90;;;;;;5046723;28;19924;-74
2021/05/04 10:48:02;;;;;;;;;;;9.60;99.90;;;;;;5026120;28;20466;-75
2021/05/04 10:50:46;;;;;;;;;;;9.70;99.90;;;;;;4996287;28;19917;-73
2021/05/04 10:53:12;;;;;;;;;;;9.70;99.90;;;;;;5044837;28;19967;-74
2021/05/04 10:55:53;;;;;;;;;;;9.70;99.90;;;;;;5044972;28;20011;-72
2021/05/04 10:58:22;;;;;;;;;;;9.60;99.90;;;;;;5027465;28;20014;-73
2021/05/04 11:00:51;;;;;;;;;;;9.70;99.90;;;;;;5044752;28;19924;-73
2021/05/04 11:03:29;;;;;;;;;;;9.80;99.90;;;;;;5043377;28;20330;-73
2021/05/04 11:05:58;;;;;;;;;;;9.70;99.90;;;;;;5044895;28;19928;-72
2021/05/04 11:08:24;;;;;;;;;;;9.70;99.90;;;;;;5043988;28;19931;-73
2021/05/04 11:11:08;;;;;;;;;;;9.70;99.90;;;;;;5012747;28;19920;-73
2021/05/04 11:13:52;;;;;;;;;;;9.70;99.90;;;;;;5046876;28;19921;-72
2021/05/04 11:16:27;;;;;;;;;;;9.70;99.90;;;;;;5034537;28;19921;-73
2021/05/04 11:19:06;;;;;;;;;;;9.70;99.90;;;;;;5029003;28;19920;-73
2021/05/04 11:21:44;;;;;;;;;;;9.80;99.90;;;;;;5030663;28;20370;-73
2021/05/04 11:24:13;;;;;;;;;;;9.90;99.90;;;;;;4350214;28;10000195;-73
2021/05/04 11:26:56;;;;;;;;;;;9.90;99.90;;;;;;5048197;28;19920;-73
2021/05/04 11:29:45;;;;;;;;;;;9.90;99.90;;;;;;5045442;28;20468;-73
2021/05/04 11:32:11;;;;;;;;;;;9.90;99.90;;;;;;5015529;28;19921;-73
2021/05/04 11:34:46;;;;;;;;;;;9.90;99.90;;;;;;5029036;28;19921;-73
2021/05/04 11:37:11;;;;;;;;;;;9.90;99.90;;;;;;4679332;28;10000101;-73
2021/05/04 11:39:38;;;;;;;;;;;9.90;99.90;;;;;;5028021;28;20286;-75
2021/05/04 11:42:06;;;;;;;;;;;9.90;99.90;;;;;;5030096;28;19980;-74
2021/05/04 11:44:34;;;;;;;;;;;9.90;99.90;;;;;;5012040;28;20583;-73
2021/05/04 11:47:21;;;;;;;;;;;9.90;99.90;;;;;;5017236;28;19921;-74
2021/05/04 11:49:49;;;;;;;;;;;10.00;99.90;;;;;;5046549;28;19952;-73
2021/05/04 11:52:17;;;;;;;;;;;10.00;99.90;;;;;;5045863;28;19923;-73
2021/05/04 11:54:45;;;;;;;;;;;10.00;99.90;;;;;;4764620;28;10000189;-73
2021/05/04 11:57:10;;;;;;;;;;;10.00;99.90;;;;;;5047025;28;19921;-73
2021/05/04 11:59:36;;;;;;;;;;;9.90;99.90;;;;;;5029189;28;20405;-73
2021/05/04 12:02:04;;;;;;;;;;;9.80;99.90;;;;;;5028296;28;19927;-71
2021/05/04 12:04:46;;;;;;;;;;;9.70;99.90;;;;;;5029118;28;19921;-73
2021/05/04 12:07:11;;;;;;;;;;;9.80;99.90;;;;;;5047242;28;20375;-72
2021/05/04 12:09:38;;;;;;;;;;;9.80;99.90;;;;;;5043309;28;21567;-73
2021/05/04 12:12:13;;;;;;;;;;;9.80;99.90;;;;;;5027097;28;19920;-73
2021/05/04 12:14:54;;;;;;;;;;;9.70;99.90;;;;;;5048132;28;20017;-73
2021/05/04 12:17:23;;;;;;;;;;;9.70;99.90;;;;;;5028450;28;19977;-73
2021/05/04 12:19:49;;;;;;;;;;;9.80;99.90;;;;;;5047190;28;20737;-73
2021/05/04 12:22:14;;;;;;;;;;;9.80;99.90;;;;;;5045610;28;19919;-74
2021/05/04 12:24:40;;;;;;;;;;;9.80;99.90;;;;;;5028801;28;19925;-73
2021/05/04 12:27:05;;;;;;;;;;;9.80;99.90;;;;;;5028893;28;19924;-73
2021/05/04 12:29:33;;;;;;;;;;;9.90;99.90;;;;;;5027932;28;21478;-73
2021/05/04 12:31:59;;;;;;;;;;;9.90;99.90;;;;;;5046221;28;19921;-73
2021/05/04 12:34:24;;;;;;;;;;;10.00;99.90;;;;;;5029774;28;19912;-74
2021/05/04 12:36:58;;;;;;;;;;;10.00;99.90;;;;;;5048695;28;20011;-73
2021/05/04 12:39:25;;;;;;;;;;;10.10;99.90;;;;;;5048569;28;19924;-73
2021/05/04 12:41:51;;;;;;;;;;;10.20;99.90;;;;;;5046997;28;19975;-73
2021/05/04 12:46:51;;;;;;;;;;;10.20;99.90;;;;;;5030162;28;19916;-72
2021/05/04 12:49:19;;;;;;;;;;;10.30;99.90;;;;;;5045771;28;20006;-71
2021/05/04 12:51:46;;;;;;;;;;;10.40;99.90;;;;;;5044946;28;19932;-72
2021/05/04 12:54:17;;;;;;;;;;;10.40;99.90;;;;;;5045430;28;20276;-72
2021/05/04 12:56:46;;;;;;;;;;;10.40;99.90;;;;;;5046977;28;20365;-72
2021/05/04 12:59:15;;;;;;;;;;;10.40;99.90;;;;;;5045696;28;19921;-71
2021/05/04 13:01:45;;;;;;;;;;;10.40;99.90;;;;;;5010391;28;19921;-72
2021/05/04 13:04:32;;;;;;;;;;;10.50;99.90;;;;;;5045760;28;19916;-72
2021/05/04 13:07:02;;;;;;;;;;;10.40;99.90;;;;;;5030693;28;19997;-72
2021/05/04 13:12:14;;;;;;;;;;;10.50;99.90;;;;;;5028917;28;19921;-72
2021/05/04 13:31:31;;;;;;;;;;;11.30;99.90;;;;;;5044549;28;19917;-72
2021/05/04 13:33:58;;;;;;;;;;;11.40;99.90;;;;;;5044874;28;19921;-72
2021/05/04 13:36:24;;;;;;;;;;;11.30;99.90;;;;;;5046073;28;19968;-71
2021/05/04 13:39:21;;;;;;;;;;;11.20;99.90;;;;;;5010277;28;19980;-72
2021/05/04 13:49:48;;;;;;;;;;;11.40;99.90;;;;;;5046445;28;19927;-74
2021/05/04 13:52:14;;;;;;;;;;;11.50;99.90;;;;;;5026922;28;19917;-72
2021/05/04 13:54:45;;;;;;;;;;;11.60;99.90;;;;;;5046338;28;20019;-71
2021/05/04 13:57:15;;;;;;;;;;;11.80;99.90;;;;;;5045506;28;20012;-71
2021/05/04 13:59:41;;;;;;;;;;;11.80;99.70;;;;;;5044433;28;19920;-71
2021/05/04 14:02:14;;;;;;;;;;;11.80;99.90;;;;;;5045003;28;20374;-71
2021/05/04 14:04:52;;;;;;;;;;;11.90;99.90;;;;;;5043272;28;20077;-72
2021/05/04 14:26:34;;;;;;;;;;;11.90;99.90;;;;;;5046194;28;19932;-72
2021/05/04 14:29:00;;;;;;;;;;;11.90;99.90;;;;;;5026601;28;20372;-73
2021/05/04 14:31:26;;;;;;;;;;;12.00;99.40;;;;;;5027506;28;19968;-72
2021/05/04 14:33:51;;;;;;;;;;;12.00;99.90;;;;;;5018027;28;20007;-72
2021/05/04 15:02:50;;;;;;;;;;;11.90;99.90;;;;;;5049708;28;19920;-71
2021/05/04 15:05:20;;;;;;;;;;;11.70;99.90;;;;;;5049023;28;20006;-70
2021/05/04 15:07:48;;;;;;;;;;;11.70;99.90;;;;;;5049738;28;19942;-71
2021/05/04 15:10:13;;;;;;;;;;;11.60;99.90;;;;;;5049110;28;19921;-71
2021/05/04 15:12:40;;;;;;;;;;;11.60;99.90;;;;;;5048817;28;19930;-71
2021/05/04 15:15:08;;;;;;;;;;;11.60;99.90;;;;;;5049097;28;19921;-72
2021/05/04 15:17:46;;;;;;;;;;;11.70;99.90;;;;;;5049458;28;19955;-72
2021/05/04 15:22:56;;;;;;;;;;;11.80;99.90;;;;;;5048496;28;21133;-71
2021/05/04 15:25:24;;;;;;;;;;;11.80;99.90;;;;;;5032434;28;19916;-71
2021/05/04 15:27:52;;;;;;;;;;;11.70;99.90;;;;;;5033289;28;19913;-70
2021/05/04 15:30:18;;;;;;;;;;;11.70;99.90;;;;;;5049769;28;19921;-71
2021/05/04 15:35:27;;;;;;;;;;;11.70;99.90;;;;;;5049591;28;19916;-71
2021/05/04 15:37:53;;;;;;;;;;;11.70;99.90;;;;;;5048529;28;19959;-71
2021/05/04 15:40:19;;;;;;;;;;;11.60;96.80;;;;;;5032697;28;19931;-71
2021/05/04 15:42:45;;;;;;;;;;;11.60;93.00;;;;;;5029806;28;20250;-70
2021/05/04 15:45:11;;;;;;;;;;;11.50;93.00;;;;;;5003518;28;19916;-71
2021/05/04 15:50:48;;;;;;;;;;;11.40;90.60;;;;;;4945657;28;19918;-71
2021/05/04 16:07:35;;;;;;;;;;;11.20;83.20;;;;;;4978331;28;19932;-71
2021/05/04 16:10:01;;;;;;;;;;;11.10;82.00;;;;;;4978112;28;19925;-71
2021/05/04 16:12:26;;;;;;;;;;;11.10;86.80;;;;;;4978625;28;20360;-73
2021/05/04 16:14:54;;;;;;;;;;;11.10;81.20;;;;;;4979106;28;20248;-72